Time;durP1;ratioP1;P1;durP2;ratioP2;P2;SDS_P1;SDS_P2;PMS_P1;PMS_P2;Temp;Humidity;BMP_temperature;BMP_pressure;BME280_temperature;BME280_humidity;BME280_pressure;Samples;Min_cycle;Max_cycle;Signal;HPM_P1;HPM_P2
2023/05/31 00:00:07;;;;;;;6.80;3.80;;;;;;;8.82;69.04;101224.91;102764;276;96752;-51
2023/05/31 00:03:16;;;;;;;6.70;3.30;;;;;;;8.80;69.33;101223.50;102690;276;97126;-50
2023/05/31 00:05:52;;;;;;;5.40;3.40;;;;;;;8.75;69.45;101223.83;102717;276;121269;-55
2023/05/31 00:08:27;;;;;;;7.30;3.20;;;;;;;8.69;69.43;101227.48;102732;276;106121;-54
2023/05/31 00:11:09;;;;;;;5.60;3.50;;;;;;;8.65;69.51;101225.58;102721;276;114524;-56
2023/05/31 00:13:44;;;;;;;7.70;3.80;;;;;;;8.62;69.69;101228.41;102691;276;96108;-55
2023/05/31 00:16:21;;;;;;;6.50;3.30;;;;;;;8.60;69.89;101230.11;102724;276;96505;-54
2023/05/31 00:18:58;;;;;;;6.80;3.40;;;;;;;8.58;69.98;101230.47;102692;276;120397;-55
2023/05/31 00:21:38;;;;;;;9.20;3.50;;;;;;;8.53;70.10;101226.34;102759;276;105414;-52
2023/05/31 00:24:16;;;;;;;6.90;3.80;;;;;;;8.52;70.19;101229.14;102724;276;114827;-53
2023/05/31 00:26:53;;;;;;;6.10;3.30;;;;;;;8.52;70.25;101226.80;102782;276;94472;-55
2023/05/31 00:29:28;;;;;;;5.50;3.40;;;;;;;8.49;70.54;101227.70;102813;276;98160;-55
2023/05/31 00:32:05;;;;;;;7.40;4.10;;;;;;;8.43;70.57;101225.39;102835;276;121072;-52
2023/05/31 00:34:40;;;;;;;6.90;3.50;;;;;;;8.38;70.70;101224.87;102855;277;105567;-53
2023/05/31 00:37:24;;;;;;;7.10;3.30;;;;;;;8.30;70.79;101224.98;102846;276;113270;-55
2023/05/31 00:40:03;;;;;;;6.20;3.30;;;;;;;8.25;70.76;101228.84;102568;276;97225;-55
2023/05/31 00:42:46;;;;;;;5.60;3.20;;;;;;;8.21;70.89;101233.70;102782;276;96660;-54
2023/05/31 00:45:28;;;;;;;8.10;3.80;;;;;;;8.20;70.90;101232.86;102790;276;119956;-55
2023/05/31 00:48:04;;;;;;;8.00;4.30;;;;;;;8.19;71.01;101233.48;102785;276;104790;-56
2023/05/31 00:50:44;;;;;;;6.80;3.60;;;;;;;8.19;71.19;101240.05;102796;276;114401;-52
2023/05/31 00:53:28;;;;;;;7.90;3.40;;;;;;;8.15;71.14;101233.01;102483;276;94387;-52
2023/05/31 00:56:10;;;;;;;7.90;3.90;;;;;;;8.08;71.37;101238.11;102755;276;98086;-51
2023/05/31 00:58:47;;;;;;;11.10;3.30;;;;;;;8.00;71.50;101239.72;102709;276;121114;-52
2023/05/31 01:01:33;;;;;;;9.80;3.90;;;;;;;7.97;71.45;101240.33;102746;276;105914;-55
2023/05/31 01:04:13;;;;;;;7.00;3.10;;;;;;;7.95;71.48;101243.02;102717;276;113832;-55
2023/05/31 01:07:02;;;;;;;7.20;3.60;;;;;;;7.93;71.66;101239.04;102688;276;94895;-56
2023/05/31 01:09:42;;;;;;;11.30;3.60;;;;;;;7.89;71.87;101238.38;102757;276;98551;-55
2023/05/31 01:12:27;;;;;;;8.60;3.80;;;;;;;7.79;72.13;101239.39;102759;276;120872;-55
2023/05/31 01:15:19;;;;;;;5.80;3.10;;;;;;;7.68;72.35;101240.46;102771;276;105054;-54
2023/05/31 01:18:12;;;;;;;5.00;3.40;;;;;;;7.63;72.48;101247.27;102783;276;114967;-54
2023/05/31 01:21:03;;;;;;;7.10;3.50;;;;;;;7.58;72.52;101254.50;102814;276;97157;-52
2023/05/31 01:24:01;;;;;;;7.20;3.00;;;;;;;7.53;72.65;101255.54;102788;276;97916;-51
2023/05/31 01:26:48;;;;;;;6.40;3.30;;;;;;;7.48;72.76;101258.73;102826;276;118993;-51
2023/05/31 01:29:26;;;;;;;5.60;2.80;;;;;;;7.45;72.75;101263.84;102777;276;104385;-52
2023/05/31 01:32:06;;;;;;;6.30;3.00;;;;;;;7.42;72.85;101264.00;102774;276;114027;-51
2023/05/31 01:34:47;;;;;;;6.90;3.00;;;;;;;7.40;72.90;101267.74;102717;276;96962;-52
2023/05/31 01:37:25;;;;;;;7.80;3.10;;;;;;;7.41;72.94;101271.05;102763;276;97580;-55
2023/05/31 01:40:05;;;;;;;6.10;3.20;;;;;;;7.45;73.07;101273.52;102779;276;120663;-55
2023/05/31 01:42:45;;;;;;;6.10;2.80;;;;;;;7.46;73.42;101277.73;102743;276;105954;-55
2023/05/31 01:45:27;;;;;;;7.60;3.50;;;;;;;7.42;73.42;101281.14;102719;276;116008;-53
2023/05/31 01:48:10;;;;;;;8.10;3.50;;;;;;;7.38;73.50;101282.32;102712;276;94838;-54
2023/05/31 01:50:52;;;;;;;4.10;2.60;;;;;;;7.36;73.39;101282.70;102779;276;96319;-52
2023/05/31 01:53:30;;;;;;;4.20;2.80;;;;;;;7.29;73.55;101278.31;102734;276;119593;-52
2023/05/31 01:56:15;;;;;;;6.40;2.70;;;;;;;7.21;73.58;101277.70;102775;276;105572;-55
2023/05/31 01:58:54;;;;;;;3.70;2.50;;;;;;;7.14;73.70;101278.55;102752;276;115191;-55
2023/05/31 02:01:43;;;;;;;5.60;2.80;;;;;;;7.10;73.79;101281.26;102775;276;94169;-51
2023/05/31 02:04:22;;;;;;;7.80;2.50;;;;;;;7.08;73.98;101280.66;102760;276;95997;-52
2023/05/31 02:07:00;;;;;;;4.90;2.60;;;;;;;7.06;73.96;101281.65;102755;276;121745;-55
2023/05/31 02:09:45;;;;;;;6.90;2.80;;;;;;;6.99;74.23;101282.96;102776;276;104607;-55
2023/05/31 02:12:23;;;;;;;7.20;2.70;;;;;;;6.94;74.27;101287.56;102797;276;114682;-51
2023/05/31 02:15:03;;;;;;;7.20;2.80;;;;;;;6.90;74.28;101283.39;102782;276;96799;-51
2023/05/31 02:17:40;;;;;;;3.80;2.40;;;;;;;6.85;74.40;101284.42;102767;277;95847;-51
2023/05/31 02:20:22;;;;;;;9.40;3.30;;;;;;;6.83;74.48;101285.08;102503;276;120059;-54
2023/05/31 02:23:00;;;;;;;4.90;2.80;;;;;;;6.82;74.67;101285.15;102784;265;105707;-55
2023/05/31 02:25:40;;;;;;;4.90;2.70;;;;;;;6.82;74.62;101285.02;102762;276;114224;-55
2023/05/31 02:28:17;;;;;;;7.00;3.60;;;;;;;6.82;74.74;101284.50;102736;276;94627;-54
2023/05/31 02:31:03;;;;;;;8.70;3.20;;;;;;;6.77;74.83;101288.67;102747;276;97031;-54
2023/05/31 02:33:38;;;;;;;7.20;2.80;;;;;;;6.74;74.93;101292.56;102726;276;120891;-56
2023/05/31 02:36:22;;;;;;;7.60;2.70;;;;;;;6.74;74.92;101294.48;102802;265;103684;-51
2023/05/31 02:39:00;;;;;;;5.80;2.50;;;;;;;6.77;74.90;101294.26;102782;276;113853;-52
2023/05/31 02:41:44;;;;;;;6.80;3.20;;;;;;;6.81;74.99;101296.23;102787;276;93814;-56
2023/05/31 02:44:23;;;;;;;7.10;2.80;;;;;;;6.90;75.05;101293.37;102806;276;96166;-56
2023/05/31 02:47:01;;;;;;;5.90;2.70;;;;;;;6.95;74.95;101290.86;102755;277;119620;-55
2023/05/31 02:49:38;;;;;;;6.60;2.80;;;;;;;6.97;75.06;101293.64;102606;277;104876;-55
2023/05/31 02:52:14;;;;;;;7.60;2.90;;;;;;;6.96;75.10;101294.73;102811;277;114185;-52
2023/05/31 02:54:58;;;;;;;8.00;2.80;;;;;;;6.96;75.23;101299.23;102801;277;96198;-51
2023/05/31 02:57:38;;;;;;;5.70;2.70;;;;;;;6.98;75.16;101302.99;102774;277;97553;-51
2023/05/31 03:00:20;;;;;;;5.50;2.80;;;;;;;6.98;75.20;101298.50;102753;277;120452;-52
2023/05/31 03:02:58;;;;;;;5.80;2.60;;;;;;;7.01;75.35;101301.64;102770;277;103361;-50
2023/05/31 03:05:38;;;;;;;6.50;2.60;;;;;;;7.05;75.48;101303.55;102776;277;114277;-52
2023/05/31 03:08:14;;;;;;;6.10;3.00;;;;;;;7.07;75.71;101298.54;102732;277;94957;-53
2023/05/31 03:10:50;;;;;;;8.50;2.40;;;;;;;7.11;75.69;101297.65;102752;277;97793;-51
2023/05/31 03:13:24;;;;;;;5.00;2.50;;;;;;;7.17;75.68;101295.84;102708;277;119534;-52
2023/05/31 03:16:02;;;;;;;5.60;2.50;;;;;;;7.21;75.87;101300.25;102728;277;105565;-54
2023/05/31 03:18:40;;;;;;;5.90;2.60;;;;;;;7.28;75.81;101304.09;102675;277;114375;-56
2023/05/31 03:21:16;;;;;;;6.60;2.60;;;;;;;7.36;75.82;101301.80;102507;277;97763;-54
2023/05/31 03:23:54;;;;;;;5.20;2.60;;;;;;;7.49;75.87;101305.83;102739;277;98004;-55
2023/05/31 03:26:31;;;;;;;5.30;2.70;;;;;;;7.63;75.90;101307.08;102683;276;119974;-55
2023/05/31 03:29:08;;;;;;;5.20;2.10;;;;;;;7.91;75.59;101308.12;102728;277;105444;-55
2023/05/31 03:31:43;;;;;;;7.50;2.90;;;;;;;9.18;74.38;101300.55;102742;276;113604;-51
2023/05/31 03:34:18;;;;;;;3.90;2.30;;;;;;;11.12;72.53;101295.73;102752;276;93395;-51
2023/05/31 03:36:58;;;;;;;6.00;2.10;;;;;;;12.74;70.75;101290.92;102842;276;96887;-55
2023/05/31 03:39:36;;;;;;;5.50;2.50;;;;;;;14.31;68.61;101293.50;102819;276;120270;-55
2023/05/31 03:42:12;;;;;;;7.40;2.80;;;;;;;15.67;66.47;101290.40;102832;277;104562;-56
2023/05/31 03:44:51;;;;;;;5.80;2.50;;;;;;;16.79;64.35;101286.86;102778;277;113246;-54
2023/05/31 03:47:29;;;;;;;5.40;2.30;;;;;;;17.71;62.25;101290.55;102791;277;94235;-52
2023/05/31 03:50:05;;;;;;;6.50;2.60;;;;;;;18.58;60.73;101291.64;102776;277;97234;-52
2023/05/31 03:52:42;;;;;;;4.70;2.40;;;;;;;19.47;58.02;101286.45;102750;265;119886;-53
2023/05/31 03:55:28;;;;;;;5.30;2.50;;;;;;;20.12;56.04;101287.48;102733;277;106087;-57
2023/05/31 03:58:03;;;;;;;5.10;2.20;;;;;;;20.80;53.96;101288.10;102732;277;114993;-56
2023/05/31 04:00:40;;;;;;;4.60;2.20;;;;;;;21.42;52.63;101285.78;102686;277;93170;-56
2023/05/31 04:03:21;;;;;;;5.70;2.40;;;;;;;22.05;50.73;101286.16;102729;277;98403;-56
2023/05/31 04:05:57;;;;;;;6.90;2.10;;;;;;;22.51;49.44;101289.83;102742;277;120435;-55
2023/05/31 04:08:35;;;;;;;5.80;2.20;;;;;;;23.05;47.22;101287.80;102718;277;104086;-56
2023/05/31 04:11:15;;;;;;;5.20;2.20;;;;;;;23.47;45.31;101286.47;102734;277;114382;-55
2023/05/31 04:13:51;;;;;;;6.00;2.60;;;;;;;23.67;44.58;101289.63;102722;277;94443;-54
2023/05/31 04:16:27;;;;;;;5.60;2.90;;;;;;;23.94;43.12;101280.67;102768;277;97869;-53
2023/05/31 04:19:05;;;;;;;3.40;2.10;;;;;;;23.22;42.44;101290.74;102734;277;121507;-54
2023/05/31 04:21:41;;;;;;;3.40;2.00;;;;;;;21.56;42.67;101288.70;102785;277;104630;-52
2023/05/31 04:24:17;;;;;;;4.40;2.20;;;;;;;19.90;43.53;101288.52;102566;278;116072;-52
2023/05/31 04:26:54;;;;;;;3.90;2.10;;;;;;;18.67;44.36;101291.73;102732;277;93242;-51
2023/05/31 04:29:33;;;;;;;6.10;2.00;;;;;;;17.50;45.59;101289.88;102738;277;98641;-53
2023/05/31 04:32:10;;;;;;;3.40;2.20;;;;;;;16.83;46.36;101291.91;102772;277;120512;-54
2023/05/31 04:34:57;;;;;;;5.30;2.10;;;;;;;16.26;47.20;101296.23;102767;277;105758;-55
2023/05/31 04:37:38;;;;;;;4.90;2.00;;;;;;;15.47;48.59;101295.05;102743;277;114316;-55
2023/05/31 04:40:17;;;;;;;4.30;2.20;;;;;;;15.42;49.13;101293.39;102704;277;94292;-56
2023/05/31 04:42:52;;;;;;;4.10;2.00;;;;;;;16.61;48.76;101286.70;102727;277;97343;-56
2023/05/31 04:45:30;;;;;;;6.90;2.40;;;;;;;17.36;47.69;101288.89;102743;277;120761;-55
2023/05/31 04:48:11;;;;;;;5.80;2.60;;;;;;;18.48;46.81;101285.57;102696;277;104902;-55
2023/05/31 04:50:51;;;;;;;5.00;2.10;;;;;;;19.36;45.64;101278.97;102733;277;114702;-53
2023/05/31 04:53:26;;;;;;;3.90;1.90;;;;;;;20.03;44.83;101281.61;102725;277;94540;-53
2023/05/31 04:56:07;;;;;;;4.00;1.90;;;;;;;20.83;43.82;101277.48;102754;277;97508;-53
2023/05/31 04:58:54;;;;;;;3.80;1.70;;;;;;;21.99;42.67;101268.03;102698;277;120580;-53
2023/05/31 05:01:32;;;;;;;3.20;1.50;;;;;;;23.13;41.35;101272.54;102802;277;106506;-53
2023/05/31 05:04:14;;;;;;;3.40;2.00;;;;;;;24.16;40.07;101268.05;102794;277;114744;-52
2023/05/31 05:06:50;;;;;;;4.20;1.60;;;;;;;24.98;38.93;101268.90;102803;277;94280;-54
2023/05/31 05:09:30;;;;;;;4.00;1.70;;;;;;;25.79;37.14;101264.27;102725;277;97070;-54
2023/05/31 05:12:17;;;;;;;2.90;1.80;;;;;;;26.41;36.12;101265.15;102759;277;119530;-53
2023/05/31 05:14:59;;;;;;;3.50;1.50;;;;;;;26.68;35.12;101265.31;102767;277;106219;-52
2023/05/31 05:17:36;;;;;;;3.50;1.60;;;;;;;27.10;34.28;101266.48;102749;277;115048;-56
2023/05/31 05:20:13;;;;;;;4.10;2.00;;;;;;;27.26;33.43;101266.82;102731;277;93536;-55
2023/05/31 05:22:52;;;;;;;4.30;1.50;;;;;;;27.87;32.97;101263.48;102726;277;96661;-57
2023/05/31 05:25:29;;;;;;;3.90;1.60;;;;;;;28.21;31.88;101263.21;102745;277;120708;-52
2023/05/31 05:28:04;;;;;;;3.60;1.60;;;;;;;28.27;31.24;101261.40;102542;277;107097;-53
2023/05/31 05:30:44;;;;;;;2.80;1.60;;;;;;;28.44;31.09;101256.41;102739;277;114690;-56
2023/05/31 05:33:28;;;;;;;4.20;2.10;;;;;;;28.70;30.41;101263.40;102723;269;94209;-55
2023/05/31 05:36:08;;;;;;;3.80;2.10;;;;;;;29.14;30.17;101259.95;102764;277;98255;-54
2023/05/31 05:38:49;;;;;;;3.40;1.80;;;;;;;29.52;29.50;101257.38;102747;277;121306;-53
2023/05/31 05:41:25;;;;;;;2.60;1.40;;;;;;;29.76;28.99;101254.04;102762;277;106282;-54
2023/05/31 05:44:03;;;;;;;5.90;1.90;;;;;;;29.84;27.93;101252.25;102755;277;112467;-54
2023/05/31 05:46:42;;;;;;;3.30;1.70;;;;;;;29.73;27.88;101255.60;102776;277;94437;-53
2023/05/31 05:49:21;;;;;;;4.50;2.50;;;;;;;30.03;27.51;101256.07;102058;279;651342;-53
2023/05/31 05:51:56;;;;;;;3.00;1.80;;;;;;;30.40;27.27;101249.43;102704;277;121399;-54
2023/05/31 05:54:43;;;;;;;3.10;2.10;;;;;;;30.83;26.61;101250.02;102840;277;105934;-53
2023/05/31 05:57:18;;;;;;;4.50;1.50;;;;;;;30.79;26.19;101250.17;102730;277;113530;-57
2023/05/31 05:59:57;;;;;;;3.20;1.80;;;;;;;30.96;25.44;101255.41;102735;277;93706;-57
2023/05/31 06:02:34;;;;;;;3.30;1.60;;;;;;;31.10;25.48;101259.69;102745;277;96646;-53
2023/05/31 06:05:12;;;;;;;4.50;2.00;;;;;;;31.09;25.37;101265.29;102740;277;120814;-54
2023/05/31 06:07:50;;;;;;;4.60;2.00;;;;;;;31.15;25.44;101262.06;102555;277;105040;-52
2023/05/31 06:10:29;;;;;;;4.30;1.50;;;;;;;31.42;24.71;101261.97;102739;277;114675;-56
2023/05/31 06:13:06;;;;;;;2.80;1.40;;;;;;;31.84;24.54;101251.84;102714;277;95005;-57
2023/05/31 06:15:41;;;;;;;3.00;1.50;;;;;;;32.22;24.15;101246.65;102745;277;98082;-56
2023/05/31 06:18:17;;;;;;;3.20;1.70;;;;;;;32.36;23.52;101246.67;102737;277;120491;-58
2023/05/31 06:20:51;;;;;;;3.60;1.30;;;;;;;32.69;22.97;101250.04;102758;277;105095;-58
2023/05/31 06:23:28;;;;;;;4.10;1.50;;;;;;;32.66;22.18;101245.45;102760;277;112249;-57
2023/05/31 06:26:09;;;;;;;2.60;1.10;;;;;;;32.93;21.57;101241.25;102605;277;94301;-53
2023/05/31 06:28:49;;;;;;;2.70;1.20;;;;;;;32.97;21.41;101238.42;102664;277;98367;-53
2023/05/31 06:31:31;;;;;;;3.60;1.50;;;;;;;32.83;21.33;101238.97;102826;277;120602;-56
2023/05/31 06:34:09;;;;;;;5.70;1.40;;;;;;;32.83;21.38;101241.84;102772;277;105367;-55
2023/05/31 06:36:45;;;;;;;6.30;1.80;;;;;;;33.21;21.18;101239.52;102743;277;113905;-57
2023/05/31 06:39:19;;;;;;;1.90;1.20;;;;;;;33.67;20.77;101237.05;102782;277;93021;-56
2023/05/31 06:41:54;;;;;;;2.80;1.20;;;;;;;33.67;20.03;101240.05;102698;277;96817;-56
2023/05/31 06:44:30;;;;;;;2.80;1.40;;;;;;;33.83;19.42;101237.39;102740;277;120499;-61
2023/05/31 06:47:07;;;;;;;2.90;1.10;;;;;;;33.69;19.19;101235.77;102703;277;106049;-53
2023/05/31 06:49:47;;;;;;;1.90;1.00;;;;;;;33.72;19.31;101234.02;102752;277;114289;-53
2023/05/31 06:52:26;;;;;;;2.00;1.20;;;;;;;34.27;19.24;101232.91;102711;277;94220;-54
2023/05/31 06:55:06;;;;;;;1.50;1.00;;;;;;;34.14;18.13;101237.09;102712;277;97939;-54
2023/05/31 06:57:50;;;;;;;2.90;1.30;;;;;;;34.13;18.14;101234.91;102707;277;120253;-54
2023/05/31 07:00:28;;;;;;;3.60;1.10;;;;;;;34.13;17.59;101229.02;102726;277;104625;-54
2023/05/31 07:03:06;;;;;;;3.50;1.40;;;;;;;33.94;17.75;101227.20;102764;277;114610;-53
2023/05/31 07:05:43;;;;;;;2.70;1.20;;;;;;;34.02;17.69;101225.69;102760;277;94425;-54
2023/05/31 07:08:22;;;;;;;2.10;1.50;;;;;;;33.94;17.45;101222.13;102765;276;97214;-54
2023/05/31 07:10:57;;;;;;;4.10;1.50;;;;;;;34.13;17.27;101224.45;102807;277;118942;-57
2023/05/31 07:13:39;;;;;;;2.40;1.20;;;;;;;33.61;17.49;101216.85;102787;276;105576;-57
2023/05/31 07:16:15;;;;;;;2.90;1.10;;;;;;;34.18;17.97;101214.14;102768;277;113483;-56
2023/05/31 07:18:57;;;;;;;3.10;1.30;;;;;;;34.53;17.93;101212.50;102766;265;95073;-56
2023/05/31 07:21:37;;;;;;;3.00;1.40;;;;;;;35.10;18.07;101214.30;102561;277;99478;-54
2023/05/31 07:24:11;;;;;;;1.80;1.00;;;;;;;35.40;17.71;101210.56;102738;277;121163;-53
2023/05/31 07:26:49;;;;;;;3.30;1.10;;;;;;;35.81;17.26;101211.12;102751;277;105493;-57
2023/05/31 07:29:29;;;;;;;1.50;1.10;;;;;;;35.31;16.57;101216.00;102718;276;114926;-57
2023/05/31 07:32:05;;;;;;;3.20;1.30;;;;;;;34.68;16.37;101210.35;102727;276;95304;-54
2023/05/31 07:34:42;;;;;;;1.90;0.80;;;;;;;34.38;16.39;101211.23;102756;276;96589;-54
2023/05/31 07:37:19;;;;;;;2.30;1.30;;;;;;;34.22;16.40;101199.24;102587;277;119867;-57
2023/05/31 07:40:05;;;;;;;2.20;1.40;;;;;;;34.28;16.88;101195.18;102775;265;104133;-60
2023/05/31 07:43:00;;;;;;;2.20;1.10;;;;;;;34.43;17.03;101188.86;102767;276;114298;-57
2023/05/31 07:45:35;;;;;;;2.90;1.20;;;;;;;34.77;16.95;101188.32;102768;276;94477;-60
2023/05/31 07:48:23;;;;;;;2.40;1.30;;;;;;;34.57;16.35;101189.85;102767;276;98846;-60
2023/05/31 07:51:03;;;;;;;2.00;1.10;;;;;;;34.21;16.57;101189.83;102716;276;119807;-59
2023/05/31 07:53:43;;;;;;;2.80;1.00;;;;;;;34.60;16.85;101183.42;102730;276;105654;-59
2023/05/31 07:56:27;;;;;;;2.10;1.10;;;;;;;34.64;16.74;101185.87;102706;276;113672;-60
2023/05/31 07:59:04;;;;;;;1.40;1.10;;;;;;;34.89;17.00;101190.94;102667;277;93747;-60
2023/05/31 08:01:46;;;;;;;2.70;1.20;;;;;;;34.64;16.50;101187.58;102757;277;97322;-59
2023/05/31 08:04:31;;;;;;;4.10;1.10;;;;;;;34.58;16.22;101182.37;102711;277;121126;-59
2023/05/31 08:07:08;;;;;;;3.90;1.30;;;;;;;34.82;16.36;101181.63;102726;277;106068;-57
2023/05/31 08:09:49;;;;;;;3.80;1.00;;;;;;;34.93;16.47;101183.42;102742;277;113156;-57
2023/05/31 08:12:27;;;;;;;2.70;1.00;;;;;;;34.90;15.64;101181.61;102776;277;93395;-56
2023/05/31 08:15:07;;;;;;;2.00;1.10;;;;;;;34.43;15.63;101169.60;102745;277;97946;-57
2023/05/31 08:17:51;;;;;;;2.30;1.20;;;;;;;34.47;15.64;101172.04;102744;277;120036;-58
2023/05/31 08:20:35;;;;;;;1.70;1.20;;;;;;;34.29;15.57;101173.92;102753;277;105544;-58
2023/05/31 08:23:27;;;;;;;1.90;1.00;;;;;;;34.05;15.22;101172.98;102700;277;114031;-56
2023/05/31 08:26:11;;;;;;;3.20;1.10;;;;;;;34.41;15.72;101168.39;102754;277;93461;-57
2023/05/31 08:28:54;;;;;;;2.20;1.30;;;;;;;34.51;16.29;101169.52;102712;277;95461;-57
2023/05/31 08:31:31;;;;;;;2.10;0.90;;;;;;;34.70;16.21;101168.99;102694;277;120995;-57
2023/05/31 08:34:11;;;;;;;1.20;1.10;;;;;;;35.24;16.03;101167.80;102718;277;106024;-56
2023/05/31 08:36:49;;;;;;;4.10;1.40;;;;;;;35.16;15.37;101163.77;102740;277;113438;-58
2023/05/31 08:39:27;;;;;;;1.90;1.20;;;;;;;35.11;15.19;101161.83;102723;277;95465;-58
2023/05/31 08:42:10;;;;;;;2.10;1.30;;;;;;;35.31;15.81;101158.06;102784;277;97516;-56
2023/05/31 08:44:47;;;;;;;2.20;1.30;;;;;;;35.23;15.59;101154.51;102747;277;120884;-57
2023/05/31 08:47:31;;;;;;;2.70;1.10;;;;;;;34.75;14.81;101151.57;102784;277;105689;-59
2023/05/31 08:50:08;;;;;;;4.30;1.30;;;;;;;34.32;15.59;101146.27;102729;277;114430;-57
2023/05/31 08:52:50;;;;;;;2.60;1.20;;;;;;;33.42;15.97;101145.48;102742;277;94794;-60
2023/05/31 08:55:34;;;;;;;3.80;1.50;;;;;;;32.80;16.32;101145.61;102723;277;97382;-55
2023/05/31 08:58:16;;;;;;;3.20;1.30;;;;;;;32.34;16.94;101147.41;102744;277;121279;-56
2023/05/31 09:00:57;;;;;;;6.40;1.30;;;;;;;31.95;17.15;101145.23;102736;277;105453;-56
2023/05/31 09:03:43;;;;;;;2.70;1.40;;;;;;;31.51;18.07;101151.63;102704;277;114725;-57
2023/05/31 09:06:25;;;;;;;4.10;1.10;;;;;;;30.88;16.88;101153.08;102739;277;94049;-58
2023/05/31 09:09:00;;;;;;;2.50;1.10;;;;;;;29.98;16.72;101156.77;102736;277;97981;-58
2023/05/31 09:11:41;;;;;;;2.90;1.20;;;;;;;29.84;18.03;101155.11;102813;277;120780;-57
2023/05/31 09:14:26;;;;;;;2.50;0.90;;;;;;;29.86;18.18;101156.70;102824;277;105345;-56
2023/05/31 09:17:12;;;;;;;2.20;1.10;;;;;;;29.53;18.09;101155.77;102742;277;114297;-59
2023/05/31 09:19:57;;;;;;;4.00;1.20;;;;;;;29.28;18.44;101151.55;102745;277;92744;-57
2023/05/31 09:22:36;;;;;;;1.90;1.00;;;;;;;29.23;19.12;101151.33;102739;277;97334;-57
2023/05/31 09:25:13;;;;;;;1.30;0.90;;;;;;;29.02;18.98;101150.68;102755;277;120168;-57
2023/05/31 09:27:52;;;;;;;2.40;1.20;;;;;;;28.76;18.91;101154.73;102485;277;106032;-56
2023/05/31 09:30:37;;;;;;;2.00;0.70;;;;;;;28.47;18.73;101153.71;102753;277;114547;-59
2023/05/31 09:33:15;;;;;;;3.00;1.10;;;;;;;28.45;18.59;101150.88;102688;277;95111;-58
2023/05/31 09:36:01;;;;;;;2.30;0.90;;;;;;;28.13;18.68;101145.73;102761;277;98384;-56
2023/05/31 09:38:48;;;;;;;1.90;1.00;;;;;;;28.01;19.51;101147.55;102761;277;121405;-56
2023/05/31 09:41:30;;;;;;;2.40;1.20;;;;;;;27.89;19.44;101148.05;102776;277;105306;-56
2023/05/31 09:44:11;;;;;;;3.10;1.10;;;;;;;27.68;19.68;101147.42;102752;265;115641;-56
2023/05/31 09:46:50;;;;;;;2.80;1.20;;;;;;;27.28;19.05;101140.33;102736;277;94180;-55
2023/05/31 09:49:38;;;;;;;1.50;1.00;;;;;;;27.24;19.90;101139.17;102766;277;97697;-57
2023/05/31 09:52:27;;;;;;;3.20;0.90;;;;;;;26.95;19.25;101147.84;102478;278;120931;-57
2023/05/31 09:55:12;;;;;;;2.10;0.90;;;;;;;26.71;19.54;101145.95;102745;277;105171;-58
2023/05/31 09:57:58;;;;;;;2.40;1.00;;;;;;;26.87;20.25;101143.41;102672;277;114317;-57
2023/05/31 10:00:50;;;;;;;4.20;0.90;;;;;;;26.81;19.18;101139.36;102719;277;95866;-59
2023/05/31 10:03:29;;;;;;;1.50;0.90;;;;;;;26.79;19.24;101137.63;102728;277;96701;-59
2023/05/31 10:06:08;;;;;;;1.80;1.00;;;;;;;26.96;19.43;101134.57;102737;277;121181;-59
2023/05/31 10:08:50;;;;;;;1.60;0.90;;;;;;;26.85;19.59;101135.20;102743;277;105001;-62
2023/05/31 10:11:38;;;;;;;2.90;1.10;;;;;;;27.05;20.22;101125.19;102774;277;114677;-58
2023/05/31 10:14:27;;;;;;;2.10;1.10;;;;;;;26.89;19.47;101123.77;102831;277;94410;-58
2023/05/31 10:17:13;;;;;;;2.30;1.00;;;;;;;26.73;19.50;101126.55;102791;277;97176;-59
2023/05/31 10:23:01;;;;;;;1.70;0.80;;;;;;;26.31;20.18;101128.13;102744;277;104339;-58
2023/05/31 10:25:46;;;;;;;2.20;1.10;;;;;;;25.76;20.27;101125.05;102718;277;113847;-62
2023/05/31 10:28:33;;;;;;;3.10;1.50;;;;;;;25.64;20.96;101125.30;102788;277;93502;-62
2023/05/31 10:31:16;;;;;;;5.30;1.70;;;;;;;25.98;21.74;101127.94;102782;277;97819;-61
2023/05/31 10:34:10;;;;;;;2.80;1.10;;;;;;;26.16;21.54;101126.08;102734;277;120347;-61
2023/05/31 10:36:59;;;;;;;1.80;1.30;;;;;;;26.29;21.74;101123.36;102746;277;105887;-59
2023/05/31 10:39:45;;;;;;;2.10;0.90;;;;;;;26.28;21.21;101125.26;102769;277;112498;-61
2023/05/31 10:42:48;;;;;;;3.10;1.40;;;;;;;26.33;21.43;101124.27;102765;277;94701;-60
2023/05/31 10:45:30;;;;;;;3.50;1.70;;;;;;;26.52;21.19;101121.27;102801;277;97936;-58
2023/05/31 10:48:21;;;;;;;2.50;1.20;;;;;;;26.58;21.36;101118.05;102797;277;118575;-58
2023/05/31 10:51:06;;;;;;;3.70;1.00;;;;;;;26.59;21.08;101115.79;102732;277;104872;-58
2023/05/31 10:53:47;;;;;;;4.40;1.60;;;;;;;26.59;21.19;101112.95;102746;277;113097;-56
2023/05/31 10:56:37;;;;;;;5.00;1.30;;;;;;;26.26;20.90;101110.17;102744;277;95007;-60
2023/05/31 10:59:26;;;;;;;3.40;1.40;;;;;;;25.60;21.04;101115.52;102514;278;96474;-62
2023/05/31 11:02:11;;;;;;;3.70;1.10;;;;;;;25.34;21.01;101108.69;102761;276;119376;-62
2023/05/31 11:04:57;;;;;;;2.70;1.30;;;;;;;25.36;21.53;101104.05;102507;278;105414;-61
2023/05/31 11:07:41;;;;;;;2.40;1.10;;;;;;;25.30;21.17;101106.80;102704;276;113013;-58
2023/05/31 11:10:34;;;;;;;2.50;1.20;;;;;;;25.15;21.30;101104.05;102770;276;94559;-61
2023/05/31 11:13:14;;;;;;;2.90;1.40;;;;;;;25.05;21.10;101102.13;102805;277;96204;-61
2023/05/31 11:15:58;;;;;;;2.00;1.30;;;;;;;25.01;20.64;101099.28;102772;277;121166;-58
2023/05/31 11:18:45;;;;;;;2.60;1.30;;;;;;;24.93;20.79;101099.79;102750;277;104761;-58
2023/05/31 11:21:47;;;;;;;2.30;1.40;;;;;;;25.12;21.33;101097.80;102721;276;113490;-58
2023/05/31 11:24:37;;;;;;;1.90;1.20;;;;;;;25.25;21.09;101092.82;102714;276;94605;-57
2023/05/31 11:27:20;;;;;;;3.00;1.30;;;;;;;25.50;21.81;101089.30;102719;276;98696;-62
2023/05/31 11:30:06;;;;;;;3.60;1.50;;;;;;;25.44;20.60;101084.17;102753;277;120555;-58
2023/05/31 11:33:22;;;;;;;2.70;1.30;;;;;;;25.21;20.20;101082.23;102692;276;106145;-60
2023/05/31 11:36:24;;;;;;;3.00;1.20;;;;;;;25.15;20.82;101080.61;102703;276;115295;-61
2023/05/31 11:39:06;;;;;;;2.40;1.20;;;;;;;25.24;20.39;101074.23;102725;276;94728;-53
2023/05/31 11:41:49;;;;;;;3.10;1.30;;;;;;;25.44;21.45;101079.25;102804;276;98396;-56
2023/05/31 11:44:30;;;;;;;2.30;1.10;;;;;;;25.55;21.74;101076.50;102795;276;120181;-56
2023/05/31 11:47:11;;;;;;;2.30;1.30;;;;;;;25.38;21.12;101072.31;102778;276;104723;-53
2023/05/31 11:49:50;;;;;;;3.60;1.60;;;;;;;24.92;20.82;101064.55;102729;277;114766;-53
2023/05/31 11:52:33;;;;;;;2.30;1.50;;;;;;;24.62;21.15;101059.91;102729;276;93863;-58
2023/05/31 11:55:21;;;;;;;5.60;1.50;;;;;;;24.49;21.60;101051.59;102760;276;97369;-56
2023/05/31 11:58:01;;;;;;;4.50;2.10;;;;;;;24.43;21.32;101050.44;102765;277;120093;-57
2023/05/31 12:00:38;;;;;;;3.50;1.10;;;;;;;24.64;21.50;101050.09;102783;277;104075;-53
2023/05/31 12:03:20;;;;;;;3.10;1.60;;;;;;;24.75;21.80;101047.23;102747;277;113525;-54
2023/05/31 12:06:01;;;;;;;2.50;1.20;;;;;;;24.90;22.31;101044.10;102741;277;93960;-54
2023/05/31 12:08:39;;;;;;;2.40;1.30;;;;;;;24.89;22.19;101042.86;102771;277;98337;-55
2023/05/31 12:11:21;;;;;;;2.30;1.50;;;;;;;24.55;21.63;101036.71;102742;277;120760;-54
2023/05/31 12:14:07;;;;;;;2.20;1.10;;;;;;;24.42;21.21;101032.04;102734;277;104717;-54
2023/05/31 12:16:48;;;;;;;2.90;1.30;;;;;;;24.44;21.48;101030.55;102717;277;113154;-58
2023/05/31 12:19:42;;;;;;;5.30;1.80;;;;;;;24.51;21.91;101032.59;102722;277;94803;-57
2023/05/31 12:22:28;;;;;;;2.20;1.20;;;;;;;24.54;21.66;101031.56;102559;278;97141;-57
2023/05/31 12:25:14;;;;;;;3.70;1.50;;;;;;;24.30;21.29;101027.52;102723;277;120689;-58
2023/05/31 12:28:00;;;;;;;2.10;1.30;;;;;;;24.35;21.76;101024.80;102699;277;105039;-57